Time;durP1;ratioP1;P1;durP2;ratioP2;P2;SDS_P1;SDS_P2;PMS_P1;PMS_P2;Temp;Humidity;BMP_temperature;BMP_pressure;BME280_temperature;BME280_humidity;BME280_pressure;Samples;Min_cycle;Max_cycle;Signal;HPM_P1;HPM_P2
2022/01/16 00:04:11;;;;;;;39.20;20.70;;;1.60;99.90;;;;;;5033551;28;20659;-75
2022/01/16 00:06:45;;;;;;;35.50;19.17;;;1.50;99.90;;;;;;5016602;28;20220;-74
2022/01/16 00:09:11;;;;;;;37.77;19.80;;;1.50;99.90;;;;;;5013193;28;20598;-75
2022/01/16 00:11:38;;;;;;;40.07;21.50;;;1.40;99.90;;;;;;5027201;28;20181;-74
2022/01/16 00:14:07;;;;;;;41.07;20.73;;;1.50;99.90;;;;;;5031260;28;20219;-75
2022/01/16 00:16:33;;;;;;;38.07;21.10;;;1.50;99.90;;;;;;5032431;28;20169;-75
2022/01/16 00:18:59;;;;;;;36.27;19.30;;;1.40;99.90;;;;;;5032271;28;20207;-75
2022/01/16 00:21:25;;;;;;;38.33;20.80;;;1.40;99.90;;;;;;5032351;28;20181;-75
2022/01/16 00:23:52;;;;;;;37.53;19.87;;;1.40;99.90;;;;;;5032399;28;20695;-74
2022/01/16 00:26:20;;;;;;;40.57;20.83;;;1.40;99.90;;;;;;5046804;28;20268;-75
2022/01/16 00:28:46;;;;;;;40.63;20.33;;;1.30;99.90;;;;;;5031310;28;20169;-75
2022/01/16 00:31:12;;;;;;;39.77;20.07;;;1.20;99.90;;;;;;5032235;28;20258;-74
2022/01/16 00:33:39;;;;;;;37.23;19.00;;;1.20;99.90;;;;;;5032269;28;20200;-75
2022/01/16 00:36:06;;;;;;;45.70;20.27;;;1.30;99.90;;;;;;5039348;28;20179;-75
2022/01/16 00:38:32;;;;;;;42.97;20.40;;;1.40;99.90;;;;;;5024500;28;20215;-75
2022/01/16 00:40:58;;;;;;;40.67;20.70;;;1.50;99.90;;;;;;5040454;28;20183;-75
2022/01/16 00:43:23;;;;;;;40.20;19.63;;;1.50;99.90;;;;;;5051185;28;20199;-75
2022/01/16 00:45:49;;;;;;;51.27;22.60;;;1.40;99.90;;;;;;5045876;28;20234;-75
2022/01/16 00:48:15;;;;;;;44.60;22.77;;;1.40;99.90;;;;;;5051775;28;20250;-75
2022/01/16 00:50:40;;;;;;;48.47;22.60;;;1.40;99.90;;;;;;5049566;28;20611;-74
2022/01/16 00:53:07;;;;;;;48.57;23.00;;;1.30;99.90;;;;;;5040581;28;20618;-74
2022/01/16 00:55:32;;;;;;;44.97;22.97;;;1.30;99.90;;;;;;5033833;28;20242;-74
2022/01/16 00:57:58;;;;;;;40.47;21.27;;;1.30;99.90;;;;;;5041155;28;20259;-74
2022/01/16 01:00:24;;;;;;;36.60;19.13;;;1.30;99.90;;;;;;5028851;28;20653;-73
2022/01/16 01:02:53;;;;;;;38.37;19.40;;;1.30;99.90;;;;;;5027398;28;20205;-73
2022/01/16 01:05:19;;;;;;;33.13;18.57;;;1.30;99.90;;;;;;5026145;28;20225;-74
2022/01/16 01:07:44;;;;;;;37.30;20.40;;;1.30;99.90;;;;;;5038088;28;20215;-73
2022/01/16 01:10:11;;;;;;;32.63;19.23;;;1.30;99.90;;;;;;5031602;28;20173;-74
2022/01/16 01:12:57;;;;;;;37.73;18.47;;;1.30;99.90;;;;;;5034176;28;20191;-74
2022/01/16 01:15:30;;;;;;;31.53;17.47;;;1.20;99.90;;;;;;5030964;28;20179;-74
2022/01/16 01:17:56;;;;;;;29.83;17.60;;;1.20;99.90;;;;;;5026987;28;20181;-73
2022/01/16 01:20:25;;;;;;;31.30;17.03;;;1.20;99.90;;;;;;5025486;28;20235;-73
2022/01/16 01:22:52;;;;;;;28.53;16.83;;;1.20;99.90;;;;;;5035855;28;20736;-74
2022/01/16 01:25:19;;;;;;;28.53;17.83;;;1.20;99.90;;;;;;5036722;28;20234;-74
2022/01/16 01:27:46;;;;;;;26.77;15.20;;;1.10;99.90;;;;;;5037403;28;20212;-74
2022/01/16 01:30:14;;;;;;;29.20;17.17;;;1.10;99.90;;;;;;5034447;28;20276;-74
2022/01/16 01:32:42;;;;;;;31.03;17.90;;;1.10;99.90;;;;;;5038442;28;20215;-73
2022/01/16 01:35:10;;;;;;;30.63;17.47;;;1.10;99.90;;;;;;5038743;28;20216;-74
2022/01/16 01:37:37;;;;;;;24.23;16.33;;;1.10;99.90;;;;;;5041193;28;20552;-73
2022/01/16 01:40:11;;;;;;;26.27;15.13;;;1.20;99.90;;;;;;5035902;28;20731;-74
2022/01/16 01:51:20;;;;;;;26.73;15.67;;;1.20;99.90;;;;;;5042930;28;20670;-73
2022/01/16 01:53:46;;;;;;;29.13;16.57;;;1.20;99.90;;;;;;5049187;28;20200;-74
2022/01/16 01:56:14;;;;;;;32.50;17.37;;;1.20;99.90;;;;;;5034979;28;20224;-74
2022/01/16 01:58:40;;;;;;;29.10;16.30;;;1.10;99.90;;;;;;5042755;28;20285;-74
2022/01/16 02:01:06;;;;;;;30.80;17.27;;;1.10;99.90;;;;;;5031489;28;20197;-74
2022/01/16 02:06:01;;;;;;;30.17;18.00;;;1.00;99.90;;;;;;5029002;28;20205;-74
2022/01/16 02:08:26;;;;;;;30.33;16.70;;;1.10;99.90;;;;;;5040611;28;20666;-74
2022/01/16 02:10:52;;;;;;;27.17;16.37;;;1.00;99.90;;;;;;5024793;28;20260;-73
2022/01/16 02:13:26;;;;;;;27.77;17.37;;;1.00;99.90;;;;;;5036854;28;20314;-73
2022/01/16 02:32:02;;;;;;;31.47;18.40;;;1.10;99.90;;;;;;5041877;28;20204;-74
2022/01/16 02:34:44;;;;;;;28.83;18.80;;;1.20;99.90;;;;;;5053940;28;20192;-74
2022/01/16 02:37:13;;;;;;;32.27;17.73;;;1.20;99.90;;;;;;5029512;28;20205;-74
2022/01/16 02:39:45;;;;;;;29.70;18.23;;;1.20;99.90;;;;;;5030200;28;20172;-74
2022/01/16 02:42:12;;;;;;;29.17;17.93;;;1.10;99.90;;;;;;5032152;28;20234;-74
2022/01/16 02:44:45;;;;;;;29.90;17.93;;;1.10;99.90;;;;;;5046373;28;20176;-74
2022/01/16 02:47:17;;;;;;;29.53;16.77;;;1.10;99.90;;;;;;5029034;28;20239;-74
2022/01/16 02:49:47;;;;;;;28.73;17.40;;;1.10;99.90;;;;;;5031915;28;20175;-74
2022/01/16 02:52:14;;;;;;;30.00;18.03;;;1.20;99.90;;;;;;5043341;28;20181;-74
2022/01/16 02:54:42;;;;;;;32.97;17.67;;;1.20;99.90;;;;;;5033920;28;20208;-74
2022/01/16 02:57:11;;;;;;;26.07;16.03;;;1.20;99.90;;;;;;5017568;28;20189;-74
2022/01/16 02:59:40;;;;;;;23.43;15.23;;;1.30;99.90;;;;;;5045134;28;20590;-74
2022/01/16 03:02:07;;;;;;;26.53;15.70;;;1.30;99.90;;;;;;5044339;28;20180;-75
2022/01/16 03:04:33;;;;;;;25.13;15.40;;;1.30;99.90;;;;;;5023965;28;20235;-74
2022/01/16 03:07:00;;;;;;;24.50;15.47;;;1.30;99.90;;;;;;5033324;28;20581;-74
2022/01/16 03:09:31;;;;;;;26.03;15.70;;;1.30;99.90;;;;;;5032006;28;20168;-74
2022/01/16 03:11:57;;;;;;;22.83;15.27;;;1.30;99.90;;;;;;5034064;28;20180;-74
2022/01/16 03:14:23;;;;;;;25.90;14.93;;;1.20;99.90;;;;;;5031103;28;20201;-74
2022/01/16 03:16:52;;;;;;;25.60;15.27;;;1.10;99.90;;;;;;5048018;28;20211;-74
2022/01/16 03:22:06;;;;;;;23.50;15.10;;;1.20;99.90;;;;;;5037436;28;20192;-74
2022/01/16 03:24:36;;;;;;;26.30;15.93;;;1.10;99.90;;;;;;5028423;28;20283;-74
2022/01/16 03:27:15;;;;;;;31.33;16.53;;;1.00;99.90;;;;;;5038895;28;20218;-74
2022/01/16 03:29:43;;;;;;;25.57;16.30;;;0.90;99.90;;;;;;5034674;28;20176;-74
2022/01/16 03:32:14;;;;;;;27.47;16.43;;;0.90;99.90;;;;;;5041224;28;20191;-74
2022/01/16 03:34:40;;;;;;;27.53;16.70;;;1.00;99.90;;;;;;5028652;28;20679;-74
2022/01/16 03:37:07;;;;;;;28.57;17.30;;;0.90;99.90;;;;;;5042281;28;20181;-74
2022/01/16 03:39:35;;;;;;;27.77;16.87;;;0.90;99.90;;;;;;5033482;28;20265;-74
2022/01/16 03:42:01;;;;;;;29.47;17.23;;;0.90;99.90;;;;;;5028654;28;20264;-74
2022/01/16 03:44:28;;;;;;;30.60;18.20;;;0.90;99.90;;;;;;5042999;28;20199;-74
2022/01/16 03:46:53;;;;;;;30.57;17.97;;;0.90;99.90;;;;;;5033768;28;20254;-74
2022/01/16 03:49:22;;;;;;;34.77;17.83;;;0.90;99.90;;;;;;5034126;28;20173;-73
2022/01/16 03:51:50;;;;;;;30.17;17.73;;;1.00;99.90;;;;;;5030172;28;20723;-73
2022/01/16 03:54:17;;;;;;;31.63;17.67;;;0.90;99.90;;;;;;5036151;28;20188;-74
2022/01/16 03:56:44;;;;;;;32.73;17.43;;;1.00;99.90;;;;;;5025931;28;20184;-74
2022/01/16 03:59:10;;;;;;;34.43;18.40;;;0.90;99.90;;;;;;5032333;28;20184;-73
2022/01/16 04:01:36;;;;;;;29.17;17.33;;;0.90;99.90;;;;;;5038114;28;20192;-74
2022/01/16 04:04:03;;;;;;;32.43;18.23;;;0.90;99.90;;;;;;5035932;28;20212;-73
2022/01/16 04:06:28;;;;;;;41.40;19.87;;;0.90;99.90;;;;;;5031225;28;20251;-73
2022/01/16 04:08:55;;;;;;;34.97;18.73;;;0.80;99.90;;;;;;5016573;28;20722;-74
2022/01/16 04:11:26;;;;;;;31.80;18.47;;;0.70;99.90;;;;;;5042586;28;20176;-73
2022/01/16 04:14:04;;;;;;;35.03;19.20;;;0.90;99.90;;;;;;5021835;28;20211;-74
2022/01/16 04:16:30;;;;;;;41.63;19.77;;;0.90;99.90;;;;;;5027335;28;20173;-73
2022/01/16 04:18:56;;;;;;;37.77;18.23;;;0.90;99.90;;;;;;5022305;28;20176;-74
2022/01/16 04:21:25;;;;;;;33.43;19.57;;;0.80;99.90;;;;;;5025104;28;20686;-74
2022/01/16 04:23:53;;;;;;;34.00;18.17;;;0.80;99.90;;;;;;5026302;28;20293;-73
2022/01/16 04:26:20;;;;;;;37.67;20.37;;;0.70;99.90;;;;;;5023849;28;20199;-73
2022/01/16 04:28:46;;;;;;;37.07;18.87;;;0.70;99.90;;;;;;5022227;28;20515;-73
2022/01/16 04:31:13;;;;;;;34.97;19.20;;;0.70;99.90;;;;;;5023953;28;20313;-73
2022/01/16 04:33:39;;;;;;;30.23;16.40;;;0.80;99.90;;;;;;5022796;28;20193;-74
2022/01/16 04:36:06;;;;;;;28.60;15.37;;;0.80;99.90;;;;;;5028242;28;20644;-74
2022/01/16 04:38:34;;;;;;;33.30;17.87;;;1.00;99.90;;;;;;5019289;28;20193;-73
2022/01/16 04:43:47;;;;;;;31.47;17.90;;;1.00;99.90;;;;;;5025006;28;20224;-74
2022/01/16 04:46:24;;;;;;;35.20;19.37;;;1.00;99.90;;;;;;5025521;28;20720;-74
2022/01/16 04:48:51;;;;;;;33.50;17.93;;;0.90;99.90;;;;;;5022179;28;20731;-74
2022/01/16 04:51:18;;;;;;;33.83;18.00;;;0.80;99.90;;;;;;5025150;28;20168;-74
2022/01/16 04:53:44;;;;;;;21.10;11.27;;;0.80;99.90;;;;;;5020191;28;20607;-74
2022/01/16 04:56:10;;;;;;;34.30;18.30;;;0.80;99.90;;;;;;5025923;28;20185;-74
2022/01/16 04:58:36;;;;;;;32.80;16.70;;;0.80;99.90;;;;;;5025598;28;20591;-74
2022/01/16 05:01:03;;;;;;;38.03;17.00;;;0.80;99.90;;;;;;5027988;28;20195;-74
2022/01/16 05:03:30;;;;;;;37.27;18.07;;;0.80;99.90;;;;;;5023721;28;20266;-73
2022/01/16 05:05:56;;;;;;;33.27;18.13;;;0.70;99.90;;;;;;5029311;28;20188;-74
2022/01/16 05:08:22;;;;;;;38.23;18.50;;;0.70;99.90;;;;;;5029231;28;20172;-74
2022/01/16 05:10:48;;;;;;;35.87;19.23;;;0.60;99.90;;;;;;5035054;28;20181;-74
2022/01/16 05:18:35;;;;;;;36.47;19.27;;;0.70;99.90;;;;;;5022940;28;20211;-74
2022/01/16 05:21:01;;;;;;;36.67;17.50;;;0.70;99.90;;;;;;5032845;28;20183;-73
2022/01/16 05:23:27;;;;;;;30.40;18.57;;;0.70;99.90;;;;;;5030572;28;20192;-73
2022/01/16 05:25:54;;;;;;;34.50;18.10;;;0.70;99.90;;;;;;5029840;28;20898;-73
2022/01/16 05:28:20;;;;;;;39.93;19.60;;;0.70;99.90;;;;;;5031818;28;20299;-73
2022/01/16 05:30:45;;;;;;;38.13;17.80;;;0.70;99.90;;;;;;5025760;28;20664;-73
2022/01/16 05:33:11;;;;;;;35.53;17.50;;;0.70;99.90;;;;;;5038041;28;20823;-73
2022/01/16 05:35:37;;;;;;;36.83;18.43;;;0.70;99.90;;;;;;5037051;28;20177;-73
2022/01/16 05:38:02;;;;;;;37.03;18.60;;;0.60;99.90;;;;;;5028348;28;20188;-73
2022/01/16 05:40:28;;;;;;;37.00;18.93;;;0.70;99.90;;;;;;5043081;28;20255;-73
2022/01/16 05:42:54;;;;;;;24.10;11.90;;;0.70;99.90;;;;;;5024974;28;20201;-74
2022/01/16 05:45:19;;;;;;;33.03;17.03;;;0.70;99.90;;;;;;5029057;28;20181;-73
2022/01/16 05:47:45;;;;;;;30.37;16.17;;;0.80;99.90;;;;;;5030816;28;20683;-73
2022/01/16 05:50:11;;;;;;;37.53;18.63;;;0.80;99.90;;;;;;5038971;28;20181;-73
2022/01/16 05:52:37;;;;;;;31.60;15.27;;;0.80;99.90;;;;;;5028500;28;20199;-73
2022/01/16 05:55:03;;;;;;;32.70;16.97;;;0.60;99.90;;;;;;5035514;28;20264;-74
2022/01/16 05:57:28;;;;;;;24.83;14.07;;;0.50;99.90;;;;;;5031491;28;20625;-74
2022/01/16 05:59:55;;;;;;;31.23;16.97;;;0.60;99.90;;;;;;5036462;28;20201;-74
2022/01/16 06:02:20;;;;;;;25.50;14.17;;;0.60;99.90;;;;;;5033183;28;20180;-74
2022/01/16 06:04:46;;;;;;;33.23;16.80;;;0.40;99.90;;;;;;5035751;28;20179;-74
2022/01/16 06:07:12;;;;;;;30.03;15.47;;;0.50;99.90;;;;;;5025155;28;20204;-74
2022/01/16 06:09:37;;;;;;;23.53;13.77;;;0.50;99.90;;;;;;5034701;28;20177;-74
2022/01/16 06:12:04;;;;;;;31.30;16.33;;;0.50;99.90;;;;;;5039889;28;20209;-73
2022/01/16 06:14:30;;;;;;;27.77;15.20;;;0.40;99.90;;;;;;5026544;28;20195;-74
2022/01/16 06:16:56;;;;;;;28.93;15.83;;;0.30;99.90;;;;;;5039938;28;20180;-73
2022/01/16 06:19:22;;;;;;;27.67;14.80;;;0.30;99.90;;;;;;5029142;28;20193;-74
2022/01/16 06:21:48;;;;;;;24.73;14.67;;;0.30;99.90;;;;;;5029073;28;20319;-73
2022/01/16 06:24:13;;;;;;;23.17;13.03;;;0.30;99.90;;;;;;5025990;28;20260;-74
2022/01/16 06:26:39;;;;;;;19.33;12.60;;;0.20;99.90;;;;;;5023103;28;20203;-76
2022/01/16 06:29:05;;;;;;;18.73;11.57;;;0.20;99.90;;;;;;5036045;28;20203;-76
2022/01/16 06:31:31;;;;;;;12.93;8.10;;;0.10;99.90;;;;;;5037219;28;20200;-76
2022/01/16 06:33:59;;;;;;;21.47;13.67;;;0.00;99.90;;;;;;5040457;28;20189;-76
2022/01/16 06:36:25;;;;;;;25.90;15.20;;;0.10;99.90;;;;;;5033835;28;20591;-76
2022/01/16 06:38:53;;;;;;;23.03;15.20;;;0.20;99.90;;;;;;5043459;28;20643;-76
2022/01/16 06:41:19;;;;;;;25.17;15.33;;;0.10;99.90;;;;;;5028112;28;20175;-76
2022/01/16 06:43:45;;;;;;;23.10;13.87;;;0.00;99.90;;;;;;5036718;28;20200;-73
2022/01/16 06:46:10;;;;;;;25.00;14.27;;;0.10;99.90;;;;;;5039180;28;20208;-74
2022/01/16 06:48:36;;;;;;;27.33;14.17;;;0.10;99.90;;;;;;5027942;28;20177;-74
2022/01/16 06:51:02;;;;;;;22.57;14.50;;;0.00;99.90;;;;;;5037494;28;20647;-73
2022/01/16 06:53:28;;;;;;;22.17;11.03;;;0.00;99.90;;;;;;5030120;28;20192;-74
2022/01/16 06:55:53;;;;;;;22.87;13.43;;;0.00;99.90;;;;;;5034211;28;20188;-74
2022/01/16 06:58:19;;;;;;;18.10;9.93;;;0.10;99.90;;;;;;5039659;28;20540;-74
2022/01/16 07:00:46;;;;;;;20.13;12.27;;;0.10;99.90;;;;;;5028298;28;20190;-73
2022/01/16 07:03:14;;;;;;;16.60;11.20;;;0.20;99.90;;;;;;5030518;28;20200;-73
2022/01/16 07:05:40;;;;;;;17.63;11.57;;;0.30;99.90;;;;;;5035673;28;20183;-73
2022/01/16 07:08:06;;;;;;;19.27;9.70;;;0.20;99.90;;;;;;5045022;28;20196;-73
2022/01/16 07:10:32;;;;;;;14.73;9.63;;;0.10;99.90;;;;;;5023996;28;20191;-74
2022/01/16 07:12:57;;;;;;;20.23;11.20;;;0.20;99.90;;;;;;5024932;28;20262;-74
2022/01/16 07:15:23;;;;;;;15.73;8.13;;;0.00;99.90;;;;;;5028783;28;20258;-74
2022/01/16 07:17:49;;;;;;;13.87;7.90;;;0.10;99.90;;;;;;5020436;28;20185;-74
2022/01/16 07:20:15;;;;;;;17.43;11.43;;;0.00;99.90;;;;;;5022349;28;20247;-74
2022/01/16 07:22:42;;;;;;;18.47;9.87;;;0.10;99.90;;;;;;5021722;28;20204;-74
2022/01/16 07:25:08;;;;;;;15.47;10.47;;;0.10;99.90;;;;;;5028255;28;20188;-74
2022/01/16 07:27:34;;;;;;;16.30;9.30;;;0.10;99.90;;;;;;5029343;28;20204;-74
2022/01/16 07:29:59;;;;;;;12.77;7.97;;;0.10;99.90;;;;;;5039352;28;20192;-74
2022/01/16 07:32:25;;;;;;;16.27;10.57;;;0.10;99.90;;;;;;5027313;28;20177;-74
2022/01/16 07:34:50;;;;;;;20.03;11.27;;;0.10;99.90;;;;;;5040484;28;20176;-75
2022/01/16 07:37:16;;;;;;;17.30;9.30;;;0.00;99.90;;;;;;5033771;28;20187;-74
2022/01/16 07:39:42;;;;;;;19.20;10.53;;;0.10;99.90;;;;;;5032603;28;20264;-74
2022/01/16 07:42:07;;;;;;;15.37;8.17;;;0.10;99.90;;;;;;5035752;28;20557;-75
2022/01/16 07:44:33;;;;;;;19.93;10.87;;;0.20;99.90;;;;;;5026880;28;20197;-75
2022/01/16 07:46:59;;;;;;;20.50;12.63;;;0.20;99.90;;;;;;5026999;28;20204;-74
2022/01/16 07:49:24;;;;;;;19.50;11.33;;;0.20;99.90;;;;;;5029623;28;20172;-75
2022/01/16 07:51:50;;;;;;;22.00;12.63;;;0.30;99.90;;;;;;5036415;28;20189;-75
2022/01/16 07:54:16;;;;;;;18.93;11.50;;;0.30;99.90;;;;;;5026868;28;20208;-74
2022/01/16 07:56:41;;;;;;;16.53;7.77;;;0.40;99.90;;;;;;5039586;28;20194;-76
2022/01/16 07:59:07;;;;;;;18.50;10.90;;;0.30;99.90;;;;;;5041706;28;20188;-74
2022/01/16 08:01:33;;;;;;;15.30;9.73;;;0.30;99.90;;;;;;5035660;28;20196;-74
2022/01/16 08:03:58;;;;;;;14.03;9.43;;;0.30;99.90;;;;;;5041848;28;20291;-74
2022/01/16 08:06:25;;;;;;;15.63;7.87;;;0.40;99.90;;;;;;5031016;28;20200;-74
2022/01/16 08:08:51;;;;;;;16.73;10.67;;;0.40;99.90;;;;;;5028437;28;20179;-74
2022/01/16 08:11:17;;;;;;;16.73;10.53;;;0.40;99.90;;;;;;5035667;28;20560;-73
2022/01/16 08:13:42;;;;;;;22.97;12.70;;;0.40;99.90;;;;;;5028739;28;20207;-74
2022/01/16 08:16:08;;;;;;;17.43;9.73;;;0.40;99.90;;;;;;5046350;28;20188;-74
2022/01/16 08:18:34;;;;;;;17.10;11.53;;;0.30;99.90;;;;;;5032334;28;20189;-73
2022/01/16 08:21:00;;;;;;;14.73;9.93;;;0.40;99.90;;;;;;5033918;28;20263;-74
2022/01/16 08:23:26;;;;;;;19.70;11.73;;;0.40;99.90;;;;;;5024047;28;20225;-73
2022/01/16 08:25:52;;;;;;;18.77;11.93;;;0.40;99.90;;;;;;5034318;28;20222;-74
2022/01/16 08:28:18;;;;;;;19.00;11.27;;;0.40;99.90;;;;;;5024319;28;20607;-74
2022/01/16 08:30:44;;;;;;;16.87;10.97;;;0.50;99.90;;;;;;5023616;28;20656;-74
2022/01/16 08:33:10;;;;;;;24.33;12.77;;;0.60;99.90;;;;;;5034004;28;20236;-76
2022/01/16 08:35:36;;;;;;;19.70;11.53;;;0.70;99.90;;;;;;5037400;28;20177;-76
2022/01/16 08:38:01;;;;;;;19.13;12.27;;;0.70;99.90;;;;;;5040296;28;20193;-76
2022/01/16 08:40:27;;;;;;;13.93;9.43;;;0.70;99.90;;;;;;5030522;28;20207;-75
2022/01/16 08:42:53;;;;;;;15.03;10.23;;;0.70;99.90;;;;;;5032160;28;20207;-76
2022/01/16 08:45:18;;;;;;;26.43;14.13;;;0.70;99.90;;;;;;5031987;28;20181;-74
2022/01/16 08:47:44;;;;;;;20.10;10.57;;;0.60;99.90;;;;;;5024284;28;20213;-74
2022/01/16 08:50:12;;;;;;;21.63;12.50;;;0.50;99.90;;;;;;5035432;28;20184;-75
2022/01/16 08:52:39;;;;;;;21.90;12.77;;;0.60;99.90;;;;;;5039112;28;20261;-75
2022/01/16 08:55:06;;;;;;;18.50;10.57;;;0.70;99.90;;;;;;5043558;28;20177;-75
2022/01/16 08:57:31;;;;;;;21.97;13.77;;;0.70;99.90;;;;;;5031525;28;20211;-75
2022/01/16 08:59:57;;;;;;;23.50;12.37;;;0.80;99.90;;;;;;5036192;28;20652;-75
2022/01/16 09:02:23;;;;;;;23.57;13.53;;;0.80;99.90;;;;;;5030506;28;20195;-75
2022/01/16 09:04:49;;;;;;;17.87;9.97;;;0.90;99.90;;;;;;5020491;28;20197;-76
2022/01/16 09:07:15;;;;;;;20.13;12.10;;;0.80;99.90;;;;;;5042808;28;20203;-76
2022/01/16 09:09:41;;;;;;;20.90;13.10;;;0.90;99.90;;;;;;5034820;28;20181;-75
2022/01/16 09:12:08;;;;;;;13.27;7.17;;;1.00;99.90;;;;;;5030223;28;20214;-75
2022/01/16 09:14:33;;;;;;;19.47;10.90;;;1.10;99.90;;;;;;5042212;28;20565;-74
2022/01/16 09:16:59;;;;;;;21.60;11.33;;;1.10;99.90;;;;;;5034667;28;20238;-75
2022/01/16 09:19:24;;;;;;;19.73;12.10;;;1.10;99.90;;;;;;5028724;28;20690;-75
2022/01/16 09:21:50;;;;;;;17.97;10.80;;;1.10;99.90;;;;;;5032399;28;20198;-75
2022/01/16 09:24:16;;;;;;;18.60;11.80;;;1.30;99.90;;;;;;5033671;28;20618;-76
2022/01/16 09:26:41;;;;;;;22.33;12.07;;;1.40;99.90;;;;;;5020026;28;20581;-75
2022/01/16 09:29:07;;;;;;;18.87;11.37;;;1.40;99.90;;;;;;5029538;28;20228;-76
2022/01/16 09:31:32;;;;;;;17.90;11.30;;;1.50;99.90;;;;;;5027857;28;20184;-75
2022/01/16 09:33:59;;;;;;;18.20;12.50;;;1.60;99.90;;;;;;5024177;28;20639;-76
2022/01/16 09:36:25;;;;;;;18.20;11.40;;;1.60;99.90;;;;;;5020161;28;20190;-76
2022/01/16 09:38:51;;;;;;;17.97;11.73;;;1.70;99.90;;;;;;5015617;28;20189;-77
2022/01/16 09:41:17;;;;;;;18.43;12.23;;;1.90;99.90;;;;;;5020620;28;20196;-76
2022/01/16 09:43:42;;;;;;;19.53;11.97;;;2.10;99.90;;;;;;5020013;28;20707;-75
2022/01/16 09:46:08;;;;;;;11.43;7.00;;;2.10;99.90;;;;;;5023421;28;20833;-75
2022/01/16 09:48:35;;;;;;;12.97;8.03;;;2.30;99.90;;;;;;5017652;28;20196;-76
2022/01/16 09:51:00;;;;;;;14.47;9.27;;;2.50;99.90;;;;;;5034824;28;20184;-76
2022/01/16 09:53:26;;;;;;;16.73;10.17;;;2.60;99.90;;;;;;5024877;28;20252;-76
2022/01/16 09:55:52;;;;;;;15.20;10.00;;;2.60;99.90;;;;;;5037088;28;20198;-76
2022/01/16 09:58:20;;;;;;;14.43;9.47;;;2.90;99.90;;;;;;5038005;28;20264;-75
2022/01/16 10:00:46;;;;;;;15.50;10.03;;;3.00;99.90;;;;;;5035608;28;20620;-75
2022/01/16 10:03:41;;;;;;;14.53;9.70;;;3.10;99.90;;;;;;5036385;28;20204;-74
2022/01/16 10:06:15;;;;;;;17.60;11.30;;;3.50;99.90;;;;;;5033317;28;20180;-74
2022/01/16 10:08:42;;;;;;;15.37;10.43;;;3.80;99.90;;;;;;5038544;28;20176;-74
2022/01/16 10:11:23;;;;;;;16.00;11.37;;;4.20;99.90;;;;;;5025567;28;20710;-75
2022/01/16 10:14:01;;;;;;;17.27;11.50;;;4.30;99.90;;;;;;5034249;28;20197;-73
2022/01/16 10:16:32;;;;;;;14.33;10.47;;;4.30;99.90;;;;;;5028963;28;20318;-74
2022/01/16 10:18:59;;;;;;;18.07;11.97;;;4.10;99.90;;;;;;5035081;28;20185;-73
2022/01/16 10:21:39;;;;;;;16.38;10.63;;;4.30;99.90;;;;;;5022663;28;20185;-73
2022/01/16 10:24:16;;;;;;;15.00;10.60;;;4.60;99.90;;;;;;5035760;28;20201;-74
2022/01/16 10:26:43;;;;;;;16.60;12.20;;;4.70;99.90;;;;;;5019704;28;20221;-74
2022/01/16 10:29:14;;;;;;;16.50;13.03;;;4.40;99.90;;;;;;5021311;28;20226;-71
2022/01/16 10:31:40;;;;;;;20.13;12.87;;;4.10;99.90;;;;;;5018742;28;20189;-74
2022/01/16 10:34:27;;;;;;;16.43;10.63;;;3.90;99.90;;;;;;5019607;28;20354;-74
2022/01/16 10:36:53;;;;;;;16.30;10.70;;;3.80;99.90;;;;;;5028359;28;20275;-74
2022/01/16 10:39:18;;;;;;;18.27;13.07;;;3.70;99.90;;;;;;5018520;28;20211;-74
2022/01/16 10:41:44;;;;;;;15.33;9.37;;;3.70;99.90;;;;;;5019855;28;20585;-74
2022/01/16 10:44:30;;;;;;;16.57;11.10;;;3.70;99.90;;;;;;5018598;28;20280;-74
2022/01/16 10:46:56;;;;;;;19.73;13.57;;;3.70;99.90;;;;;;5022341;28;20212;-74
2022/01/16 10:49:22;;;;;;;20.97;13.93;;;3.50;99.90;;;;;;5032140;28;20802;-74
2022/01/16 10:52:12;;;;;;;18.67;13.40;;;3.30;99.90;;;;;;5030803;28;20189;-75
2022/01/16 10:54:40;;;;;;;22.00;15.17;;;3.20;99.90;;;;;;5022078;28;20209;-74
2022/01/16 10:57:27;;;;;;;19.90;14.07;;;3.10;99.90;;;;;;5028485;28;20180;-75
2022/01/16 11:00:11;;;;;;;22.30;14.03;;;3.20;99.90;;;;;;5030637;28;20287;-76
2022/01/16 11:02:39;;;;;;;21.77;14.47;;;3.10;99.90;;;;;;5021094;28;20820;-75
2022/01/16 11:05:27;;;;;;;16.60;11.83;;;3.30;99.90;;;;;;5025120;28;20182;-75
2022/01/16 11:08:01;;;;;;;20.57;13.63;;;3.50;99.90;;;;;;5027894;28;20284;-75
2022/01/16 11:10:34;;;;;;;22.50;14.97;;;3.40;99.90;;;;;;5018518;28;20217;-75
2022/01/16 11:13:09;;;;;;;22.73;14.90;;;3.10;99.90;;;;;;5022679;28;20217;-75
2022/01/16 11:15:36;;;;;;;23.93;14.90;;;3.10;99.90;;;;;;5030977;28;20172;-74
2022/01/16 11:18:03;;;;;;;22.13;15.03;;;3.00;99.90;;;;;;5031117;28;20211;-75
2022/01/16 11:20:33;;;;;;;21.73;15.13;;;3.00;99.90;;;;;;5029731;28;20267;-75
2022/01/16 11:23:47;;;;;;;26.70;15.50;;;3.00;99.90;;;;;;5027756;28;20205;-75
2022/01/16 11:26:06;;;;;;;17.80;13.43;;;2.90;99.90;;;;;;5020575;28;20665;-74
2022/01/16 11:28:33;;;;;;;19.43;12.30;;;2.90;99.90;;;;;;5027774;28;20436;-75
2022/01/16 11:31:04;;;;;;;25.17;17.33;;;2.90;99.90;;;;;;5018694;28;20211;-74
2022/01/16 11:33:33;;;;;;;23.40;15.00;;;2.90;99.90;;;;;;5023022;28;20224;-74
2022/01/16 11:36:06;;;;;;;24.03;16.47;;;2.90;99.90;;;;;;5024678;28;20184;-74
2022/01/16 11:38:35;;;;;;;25.30;16.37;;;3.10;99.90;;;;;;5029022;28;20181;-74
2022/01/16 11:41:19;;;;;;;24.10;16.50;;;3.00;99.90;;;;;;5020406;28;20648;-74
2022/01/16 11:43:47;;;;;;;26.60;18.10;;;2.90;99.90;;;;;;5028185;28;20204;-74
2022/01/16 11:46:28;;;;;;;24.93;16.97;;;3.00;99.90;;;;;;5022508;28;20181;-74
2022/01/16 11:49:01;;;;;;;24.87;17.30;;;2.90;99.90;;;;;;5022259;28;20188;-75
2022/01/16 11:51:33;;;;;;;23.03;15.77;;;2.90;99.90;;;;;;5023925;28;20339;-75
2022/01/16 11:54:01;;;;;;;25.10;14.13;;;3.00;99.90;;;;;;5024403;28;20656;-74
2022/01/16 11:56:39;;;;;;;28.77;17.83;;;3.00;99.90;;;;;;5038893;28;20206;-74
2022/01/16 11:59:25;;;;;;;23.20;14.10;;;2.90;99.90;;;;;;5031448;28;20191;-74
2022/01/16 12:02:03;;;;;;;22.63;14.83;;;2.90;99.90;;;;;;5031918;28;20610;-75
2022/01/16 12:04:28;;;;;;;27.20;18.90;;;3.00;99.90;;;;;;5025278;28;20204;-75
2022/01/16 12:07:04;;;;;;;23.70;16.37;;;3.00;99.90;;;;;;5032563;28;20200;-75
2022/01/16 12:09:37;;;;;;;21.57;16.10;;;3.10;99.90;;;;;;5026806;28;20172;-74
2022/01/16 12:12:23;;;;;;;27.63;17.70;;;3.10;99.90;;;;;;5034774;28;20267;-74
2022/01/16 12:15:06;;;;;;;19.77;11.90;;;2.90;99.90;;;;;;5025500;28;20651;-75
2022/01/16 12:17:51;;;;;;;16.97;10.77;;;2.90;99.90;;;;;;5030121;28;20204;-75
2022/01/16 12:20:27;;;;;;;25.00;16.17;;;2.90;99.90;;;;;;5031879;28;20212;-76
2022/01/16 12:23:03;;;;;;;20.83;16.03;;;2.90;99.90;;;;;;5023739;28;20201;-74
2022/01/16 12:25:39;;;;;;;22.90;15.97;;;2.90;99.90;;;;;;5033601;28;20184;-76
2022/01/16 12:28:06;;;;;;;19.17;12.43;;;2.80;99.90;;;;;;5022398;28;20218;-72
2022/01/16 12:30:44;;;;;;;21.73;14.43;;;2.90;99.90;;;;;;5017766;28;20184;-72
2022/01/16 12:33:16;;;;;;;19.37;13.90;;;2.90;99.90;;;;;;5017276;28;20200;-71
2022/01/16 12:35:42;;;;;;;24.53;15.43;;;2.80;99.90;;;;;;5017243;28;20188;-71
2022/01/16 12:38:11;;;;;;;22.07;15.90;;;2.60;99.90;;;;;;5032569;28;20270;-71
2022/01/16 12:40:38;;;;;;;15.57;11.30;;;2.60;99.90;;;;;;5026570;28;20310;-71
2022/01/16 12:43:09;;;;;;;21.10;14.10;;;2.60;99.90;;;;;;5030146;28;20209;-72
2022/01/16 12:45:41;;;;;;;23.13;16.47;;;2.50;99.90;;;;;;5032112;28;20189;-74
2022/01/16 12:48:08;;;;;;;21.60;14.80;;;2.50;99.90;;;;;;5033670;28;20211;-72
2022/01/16 12:50:35;;;;;;;22.77;14.87;;;2.30;99.90;;;;;;5022264;28;20189;-71
2022/01/16 12:53:01;;;;;;;20.10;12.37;;;2.30;99.90;;;;;;5017806;28;20212;-71
2022/01/16 12:55:27;;;;;;;20.13;12.83;;;2.30;99.90;;;;;;5028729;28;20189;-71
2022/01/16 12:57:53;;;;;;;20.60;13.47;;;2.30;99.90;;;;;;5028711;28;20192;-71
2022/01/16 13:00:19;;;;;;;20.03;11.50;;;2.30;99.90;;;;;;5036514;28;20207;-71
2022/01/16 13:02:44;;;;;;;23.60;14.33;;;2.20;99.90;;;;;;5030333;28;20789;-71
2022/01/16 13:05:18;;;;;;;24.33;16.40;;;2.10;99.90;;;;;;5033177;28;20185;-71
2022/01/16 13:07:44;;;;;;;21.70;13.00;;;2.20;99.90;;;;;;5025940;28;20208;-71
2022/01/16 13:10:10;;;;;;;23.93;15.50;;;2.20;99.90;;;;;;5023978;28;20176;-71
2022/01/16 13:12:35;;;;;;;24.07;16.03;;;2.00;99.90;;;;;;5022623;28;20732;-71
2022/01/16 13:15:02;;;;;;;22.63;14.13;;;2.00;99.90;;;;;;5017688;28;20376;-71
2022/01/16 13:17:32;;;;;;;28.17;17.43;;;2.00;99.90;;;;;;5013827;28;20272;-71
2022/01/16 13:20:01;;;;;;;20.73;12.77;;;2.00;99.90;;;;;;5019560;28;20212;-71
2022/01/16 13:22:29;;;;;;;20.03;13.17;;;2.00;99.90;;;;;;5020683;28;20663;-71
2022/01/16 13:25:03;;;;;;;22.67;16.20;;;2.00;99.90;;;;;;5021466;28;20177;-71